Time;durP1;ratioP1;P1;durP2;ratioP2;P2;SDS_P1;SDS_P2;PMS_P1;PMS_P2;Temp;Humidity;BMP_temperature;BMP_pressure;BME280_temperature;BME280_humidity;BME280_pressure;Samples;Min_cycle;Max_cycle;Signal;HPM_P1;HPM_P2
2023/05/03 00:00:26;;;;;;;2.90;2.70;;;24.00;61.90;;;;;;5032057;28;20484;-75
2023/05/03 00:02:56;;;;;;;3.23;2.80;;;24.00;61.90;;;;;;5033493;28;20574;-75
2023/05/03 00:05:26;;;;;;;3.10;2.90;;;24.00;61.90;;;;;;5033099;28;20472;-75
2023/05/03 00:07:56;;;;;;;2.97;2.77;;;24.00;61.90;;;;;;5033190;28;20439;-75
2023/05/03 00:10:25;;;;;;;3.03;2.83;;;24.00;61.90;;;;;;5033254;28;20458;-74
2023/05/03 00:12:54;;;;;;;3.90;3.33;;;24.00;61.90;;;;;;5033462;28;20503;-75
2023/05/03 00:15:23;;;;;;;3.00;2.80;;;24.00;61.90;;;;;;5034377;28;20434;-75
2023/05/03 00:17:51;;;;;;;3.20;3.00;;;24.00;61.90;;;;;;5029903;28;20456;-75
2023/05/03 00:20:19;;;;;;;2.73;2.57;;;23.90;61.90;;;;;;5033061;28;20483;-75
2023/05/03 00:22:48;;;;;;;3.50;3.20;;;23.90;61.80;;;;;;5035463;28;20880;-75
2023/05/03 00:25:17;;;;;;;2.77;2.67;;;23.90;61.80;;;;;;5038838;28;20476;-74
2023/05/03 00:27:45;;;;;;;3.20;2.97;;;24.00;61.80;;;;;;5033491;28;20969;-74
2023/05/03 00:30:14;;;;;;;3.10;2.87;;;23.90;61.80;;;;;;5015091;28;20472;-75
2023/05/03 00:32:42;;;;;;;3.30;3.00;;;23.90;61.80;;;;;;5032108;28;20449;-74
2023/05/03 00:35:10;;;;;;;3.23;2.93;;;23.90;61.80;;;;;;5035529;28;20454;-75
2023/05/03 00:37:39;;;;;;;3.37;3.07;;;23.90;61.80;;;;;;5011256;28;20483;-75
2023/05/03 00:40:09;;;;;;;3.00;2.80;;;23.90;61.80;;;;;;5019684;28;20849;-74
2023/05/03 00:42:38;;;;;;;3.10;2.90;;;23.90;61.80;;;;;;5023610;28;20462;-74
2023/05/03 00:45:07;;;;;;;3.33;3.13;;;23.90;61.80;;;;;;5032341;28;20896;-75
2023/05/03 00:47:36;;;;;;;3.13;2.93;;;23.90;61.80;;;;;;5031632;28;21087;-75
2023/05/03 00:50:07;;;;;;;2.50;2.40;;;23.90;61.80;;;;;;5030656;28;20550;-75
2023/05/03 00:52:35;;;;;;;3.43;3.23;;;23.90;61.70;;;;;;5029366;28;20453;-76
2023/05/03 00:55:04;;;;;;;3.10;2.90;;;23.90;61.70;;;;;;5039896;28;20891;-76
2023/05/03 00:57:32;;;;;;;3.40;3.10;;;23.90;61.70;;;;;;5027597;28;20527;-75
2023/05/03 01:00:02;;;;;;;3.17;3.07;;;23.90;61.70;;;;;;5013475;28;20987;-75
2023/05/03 01:02:31;;;;;;;2.90;2.70;;;23.90;61.70;;;;;;5032656;28;20449;-75
2023/05/03 01:05:01;;;;;;;3.03;2.83;;;23.90;61.70;;;;;;5014244;28;20512;-75
2023/05/03 01:07:40;;;;;;;2.60;2.50;;;23.80;61.70;;;;;;5013654;28;20462;-75
2023/05/03 01:10:18;;;;;;;3.37;3.17;;;23.80;61.70;;;;;;5029095;28;20460;-75
2023/05/03 01:12:55;;;;;;;3.30;3.10;;;23.80;61.70;;;;;;5029684;28;20976;-75
2023/05/03 01:15:37;;;;;;;3.50;3.30;;;23.80;61.70;;;;;;5032414;28;20550;-75
2023/05/03 01:18:11;;;;;;;2.57;2.47;;;23.80;61.70;;;;;;5032679;28;20444;-75
2023/05/03 01:20:44;;;;;;;3.20;2.87;;;23.80;61.70;;;;;;5021717;28;20467;-75
2023/05/03 01:23:28;;;;;;;3.30;3.10;;;23.80;61.70;;;;;;5026282;28;20484;-75
2023/05/03 01:25:57;;;;;;;3.10;2.90;;;23.80;61.70;;;;;;5032184;28;20479;-74
2023/05/03 01:28:25;;;;;;;2.63;2.50;;;23.80;61.70;;;;;;5032058;28;20522;-74
2023/05/03 01:30:56;;;;;;;3.13;2.93;;;23.80;61.70;;;;;;5014836;28;20563;-74
2023/05/03 01:33:33;;;;;;;2.83;2.67;;;23.80;61.80;;;;;;5032408;28;20510;-74
2023/05/03 01:36:11;;;;;;;2.67;2.47;;;23.80;61.70;;;;;;5014662;28;20454;-75
2023/05/03 01:38:39;;;;;;;3.67;3.13;;;23.70;61.70;;;;;;5012644;28;20599;-75
2023/05/03 01:41:13;;;;;;;3.67;3.37;;;23.80;61.70;;;;;;5012987;28;20517;-75
2023/05/03 01:43:43;;;;;;;2.80;2.60;;;23.70;61.70;;;;;;5027382;28;20986;-74
2023/05/03 01:46:12;;;;;;;3.07;2.87;;;23.70;61.70;;;;;;5031933;28;20475;-74
2023/05/03 01:48:44;;;;;;;3.00;2.90;;;23.70;61.70;;;;;;5012135;28;20493;-74
2023/05/03 01:51:12;;;;;;;2.70;2.50;;;23.70;61.70;;;;;;5032249;28;20520;-74
2023/05/03 01:53:41;;;;;;;3.30;3.10;;;23.70;61.70;;;;;;5031178;28;20456;-75
2023/05/03 01:56:10;;;;;;;2.30;2.20;;;23.70;61.70;;;;;;5032506;28;20454;-75
2023/05/03 01:58:38;;;;;;;2.87;2.77;;;23.70;61.70;;;;;;5009954;28;20519;-75
2023/05/03 02:01:07;;;;;;;3.30;3.10;;;23.70;61.70;;;;;;5014202;28;20460;-75
2023/05/03 02:03:35;;;;;;;3.70;3.40;;;23.70;61.70;;;;;;5032253;28;20437;-76
2023/05/03 02:06:03;;;;;;;2.67;2.30;;;23.70;61.70;;;;;;5031797;28;20505;-75
2023/05/03 02:08:31;;;;;;;2.90;2.70;;;23.70;61.70;;;;;;5030172;28;20492;-75
2023/05/03 02:11:00;;;;;;;3.10;2.90;;;23.70;61.70;;;;;;5031442;28;20540;-75
2023/05/03 02:13:29;;;;;;;2.90;2.80;;;23.70;61.70;;;;;;5014236;28;20458;-75
2023/05/03 02:15:57;;;;;;;3.60;2.77;;;23.70;61.70;;;;;;5013425;28;20492;-76
2023/05/03 02:18:30;;;;;;;3.03;2.90;;;23.70;61.70;;;;;;5012954;28;20506;-75
2023/05/03 02:20:58;;;;;;;3.00;2.80;;;23.70;61.70;;;;;;5031899;28;20476;-75
2023/05/03 02:23:26;;;;;;;3.20;3.00;;;23.70;61.70;;;;;;5030832;28;20456;-75
2023/05/03 02:25:54;;;;;;;3.10;2.90;;;23.60;61.70;;;;;;5014003;28;20887;-75
2023/05/03 02:28:22;;;;;;;3.20;3.00;;;23.60;61.70;;;;;;5029996;28;20492;-75
2023/05/03 02:30:52;;;;;;;2.97;2.77;;;23.60;61.70;;;;;;5022719;28;20963;-75
2023/05/03 02:33:21;;;;;;;2.67;2.47;;;23.60;61.70;;;;;;5028250;28;20568;-75
2023/05/03 02:35:49;;;;;;;3.20;3.00;;;23.60;61.70;;;;;;5031668;28;20468;-75
2023/05/03 02:38:17;;;;;;;3.27;2.97;;;23.60;61.70;;;;;;5030441;28;20891;-75
2023/05/03 02:40:46;;;;;;;2.87;2.77;;;23.60;61.70;;;;;;5013466;28;20498;-74
2023/05/03 02:43:14;;;;;;;2.93;2.73;;;23.60;61.70;;;;;;5013286;28;20486;-75
2023/05/03 02:45:43;;;;;;;2.80;2.60;;;23.60;61.60;;;;;;5013376;28;20475;-76
2023/05/03 02:48:15;;;;;;;2.97;2.80;;;23.60;61.70;;;;;;5013630;28;20465;-75
2023/05/03 02:50:43;;;;;;;5.57;2.60;;;23.60;61.60;;;;;;5029583;28;20460;-75
2023/05/03 02:53:11;;;;;;;2.67;2.47;;;23.60;61.60;;;;;;5029824;28;20464;-74
2023/05/03 02:55:40;;;;;;;2.30;2.20;;;23.60;61.60;;;;;;5013601;28;20463;-75
2023/05/03 02:58:08;;;;;;;2.70;2.50;;;23.60;61.60;;;;;;5013259;28;20460;-74
2023/05/03 03:00:37;;;;;;;2.90;2.60;;;23.60;61.60;;;;;;5012576;28;20460;-74
2023/05/03 03:03:05;;;;;;;3.27;3.07;;;23.60;61.60;;;;;;5012803;28;20535;-74
2023/05/03 03:05:35;;;;;;;2.70;2.60;;;23.60;61.60;;;;;;5013124;28;20484;-74
2023/05/03 03:08:03;;;;;;;2.80;2.60;;;23.60;61.60;;;;;;5012042;28;20482;-75
2023/05/03 03:10:32;;;;;;;2.83;2.63;;;23.60;61.60;;;;;;5031224;28;20451;-75
2023/05/03 03:13:00;;;;;;;2.93;2.73;;;23.60;61.60;;;;;;5030701;28;20457;-75
2023/05/03 03:15:34;;;;;;;5.63;2.70;;;23.60;61.50;;;;;;5013706;28;20462;-75
2023/05/03 03:18:02;;;;;;;3.03;2.83;;;23.50;61.50;;;;;;5029158;28;20460;-75
2023/05/03 03:20:31;;;;;;;2.80;2.60;;;23.50;61.50;;;;;;5012311;28;20465;-74
2023/05/03 03:23:00;;;;;;;2.90;2.70;;;23.50;61.50;;;;;;5030092;28;20540;-74
2023/05/03 03:25:29;;;;;;;2.93;2.73;;;23.50;61.50;;;;;;5031118;28;20476;-74
2023/05/03 03:27:58;;;;;;;3.27;3.07;;;23.50;61.50;;;;;;5011814;28;20476;-75
2023/05/03 03:30:26;;;;;;;2.60;2.50;;;23.50;61.50;;;;;;5013678;28;20531;-75
2023/05/03 03:33:05;;;;;;;3.07;2.87;;;23.50;61.50;;;;;;5012840;28;20496;-75
2023/05/03 03:35:39;;;;;;;2.30;2.20;;;23.50;61.50;;;;;;5030579;28;20443;-74
2023/05/03 03:38:10;;;;;;;3.27;3.00;;;23.50;61.50;;;;;;5011731;28;20586;-74
2023/05/03 03:40:45;;;;;;;2.77;2.57;;;23.50;61.50;;;;;;5013861;28;20496;-74
2023/05/03 03:43:13;;;;;;;1.97;1.87;;;23.50;61.40;;;;;;5016513;28;20456;-73
2023/05/03 03:45:41;;;;;;;2.80;2.60;;;23.50;61.40;;;;;;5016653;28;20475;-73
2023/05/03 03:48:12;;;;;;;2.93;2.73;;;23.50;61.40;;;;;;5033612;28;20479;-73
2023/05/03 03:50:41;;;;;;;2.73;2.63;;;23.50;61.40;;;;;;5034418;28;20445;-73
2023/05/03 03:53:12;;;;;;;2.63;2.50;;;23.50;61.40;;;;;;5015905;28;20856;-73
2023/05/03 03:55:41;;;;;;;2.20;2.10;;;23.50;61.40;;;;;;5016619;28;20902;-73
2023/05/03 03:58:09;;;;;;;2.43;2.33;;;23.50;61.40;;;;;;5015128;28;20551;-73
2023/05/03 04:00:38;;;;;;;2.50;2.40;;;23.50;61.30;;;;;;5011283;28;20472;-73
2023/05/03 04:03:12;;;;;;;3.00;2.80;;;23.50;61.40;;;;;;5016221;28;20788;-74
2023/05/03 04:05:41;;;;;;;2.20;2.10;;;23.50;61.40;;;;;;5016304;28;20461;-74
2023/05/03 04:08:11;;;;;;;2.93;2.73;;;23.50;61.40;;;;;;5014729;28;20468;-73
2023/05/03 04:10:40;;;;;;;3.33;2.27;;;23.40;61.40;;;;;;5008329;28;20917;-74
2023/05/03 04:13:08;;;;;;;2.30;2.20;;;23.40;61.30;;;;;;5028199;28;20547;-74
2023/05/03 04:15:37;;;;;;;2.33;2.17;;;23.40;61.30;;;;;;5032902;28;20456;-74
2023/05/03 04:18:06;;;;;;;1.87;1.77;;;23.40;61.40;;;;;;5007561;28;20514;-74
2023/05/03 04:20:36;;;;;;;2.30;2.20;;;23.40;61.40;;;;;;5012334;28;20555;-75
2023/05/03 04:23:06;;;;;;;2.70;2.50;;;23.40;61.30;;;;;;5028351;28;21025;-75
2023/05/03 04:25:37;;;;;;;2.70;2.50;;;23.40;61.30;;;;;;5029333;28;20461;-74
2023/05/03 04:28:12;;;;;;;2.60;2.50;;;23.40;61.30;;;;;;5011420;28;20468;-74
2023/05/03 04:30:46;;;;;;;2.30;2.20;;;23.40;61.30;;;;;;5011980;28;20470;-75
2023/05/03 04:33:17;;;;;;;2.23;2.07;;;23.40;61.30;;;;;;5013294;28;20487;-75
2023/05/03 04:35:49;;;;;;;2.60;2.40;;;23.40;61.30;;;;;;5008865;28;20479;-74
2023/05/03 04:38:18;;;;;;;2.10;2.00;;;23.40;61.30;;;;;;5014121;28;20563;-74
2023/05/03 04:40:48;;;;;;;2.50;2.40;;;23.50;61.30;;;;;;5011066;28;20498;-74
2023/05/03 04:43:17;;;;;;;2.03;1.93;;;23.50;61.30;;;;;;5017832;28;20460;-72
2023/05/03 04:45:47;;;;;;;2.10;2.00;;;23.50;61.20;;;;;;5009961;28;20518;-73
2023/05/03 04:48:19;;;;;;;22.93;3.30;;;23.50;61.20;;;;;;5012114;28;20493;-73
2023/05/03 04:50:48;;;;;;;2.10;2.00;;;23.50;61.20;;;;;;5010317;28;20461;-73
2023/05/03 04:53:19;;;;;;;3.33;2.70;;;23.50;61.20;;;;;;5012107;28;20826;-73
2023/05/03 04:55:55;;;;;;;2.30;2.20;;;23.50;61.10;;;;;;5014277;28;20484;-73
2023/05/03 04:58:23;;;;;;;2.13;2.03;;;23.50;61.10;;;;;;5013695;28;20460;-73
2023/05/03 05:00:52;;;;;;;2.50;2.40;;;23.50;61.10;;;;;;5025385;28;20460;-73
2023/05/03 05:03:29;;;;;;;2.50;2.40;;;23.50;61.10;;;;;;5015159;28;21468;-74
2023/05/03 05:05:59;;;;;;;2.33;2.23;;;23.40;61.10;;;;;;5012401;28;20469;-73
2023/05/03 05:08:27;;;;;;;3.50;2.90;;;23.40;61.20;;;;;;5009178;28;20460;-73
2023/05/03 05:10:58;;;;;;;2.93;2.73;;;23.40;61.20;;;;;;5032206;28;20471;-74
2023/05/03 05:13:31;;;;;;;2.97;2.30;;;23.40;61.20;;;;;;5014557;28;20467;-74
2023/05/03 05:15:59;;;;;;;2.13;2.00;;;23.40;61.20;;;;;;5013901;28;20459;-74
2023/05/03 05:18:27;;;;;;;3.00;2.77;;;23.40;61.30;;;;;;5031464;28;20460;-73
2023/05/03 05:20:57;;;;;;;2.70;2.17;;;23.40;61.30;;;;;;5045612;28;20460;-73
2023/05/03 05:23:26;;;;;;;2.50;2.40;;;23.40;61.30;;;;;;5031173;28;20559;-73
2023/05/03 05:25:59;;;;;;;3.90;2.77;;;23.40;61.30;;;;;;5038513;28;20476;-73
2023/05/03 05:28:31;;;;;;;2.93;2.73;;;23.40;61.30;;;;;;5028908;28;20557;-73
2023/05/03 05:31:00;;;;;;;2.20;2.00;;;23.40;61.30;;;;;;5014007;28;20468;-73
2023/05/03 05:33:30;;;;;;;2.50;2.30;;;23.40;61.30;;;;;;5013645;28;20455;-72
2023/05/03 05:35:59;;;;;;;1.90;1.80;;;23.40;61.30;;;;;;5014786;28;20452;-72
2023/05/03 05:38:28;;;;;;;2.53;2.30;;;23.40;61.30;;;;;;5009852;28;20484;-73
2023/05/03 05:40:59;;;;;;;2.20;2.00;;;23.40;61.30;;;;;;5009753;28;20957;-73
2023/05/03 05:43:27;;;;;;;2.60;2.50;;;23.40;61.40;;;;;;5009559;28;20460;-73
2023/05/03 05:45:57;;;;;;;2.33;2.23;;;23.40;61.40;;;;;;5007825;28;20468;-73
2023/05/03 05:48:25;;;;;;;2.83;2.50;;;23.40;61.40;;;;;;5010687;28;20524;-73
2023/05/03 05:50:54;;;;;;;2.10;1.93;;;23.40;61.40;;;;;;5015679;28;21114;-73
2023/05/03 05:53:23;;;;;;;2.60;2.40;;;23.40;61.40;;;;;;5010243;28;20487;-73
2023/05/03 05:55:57;;;;;;;2.37;2.27;;;23.40;61.40;;;;;;4995714;28;20458;-73
2023/05/03 05:58:27;;;;;;;2.30;2.20;;;23.40;61.40;;;;;;5011134;28;20503;-74
2023/05/03 06:01:00;;;;;;;2.07;1.97;;;23.40;61.40;;;;;;5010053;28;20464;-73
2023/05/03 06:03:30;;;;;;;2.80;2.10;;;23.40;61.40;;;;;;5010730;28;20940;-73
2023/05/03 06:06:00;;;;;;;3.60;2.30;;;23.40;61.40;;;;;;5008474;28;20450;-73
2023/05/03 06:08:29;;;;;;;2.10;2.00;;;23.40;61.40;;;;;;5010179;28;20461;-73
2023/05/03 06:10:57;;;;;;;2.43;2.23;;;23.40;61.40;;;;;;5010256;28;20817;-73
2023/05/03 06:13:27;;;;;;;3.47;2.23;;;23.40;61.40;;;;;;5009286;28;20488;-73
2023/05/03 06:15:56;;;;;;;2.53;2.30;;;23.40;61.40;;;;;;5008095;28;20473;-73
2023/05/03 06:18:26;;;;;;;2.30;2.10;;;23.40;61.40;;;;;;5013744;28;20461;-73
2023/05/03 06:20:55;;;;;;;2.47;2.27;;;23.50;61.30;;;;;;5009760;28;20452;-73
2023/05/03 06:23:23;;;;;;;2.47;2.27;;;23.50;61.30;;;;;;5006163;28;20457;-73
2023/05/03 06:25:53;;;;;;;5.63;2.60;;;23.50;61.30;;;;;;5009036;28;20474;-73
2023/05/03 06:28:22;;;;;;;2.50;2.30;;;23.50;61.30;;;;;;5007979;28;20478;-73
2023/05/03 06:30:54;;;;;;;1.90;1.80;;;23.50;61.20;;;;;;5003196;28;20472;-73
2023/05/03 06:33:22;;;;;;;2.10;1.90;;;23.50;61.20;;;;;;5031004;28;20508;-72
2023/05/03 06:35:53;;;;;;;4.80;2.87;;;23.50;61.20;;;;;;5009774;28;20536;-72
2023/05/03 06:38:21;;;;;;;2.67;2.47;;;23.50;61.20;;;;;;5008850;28;20990;-72
2023/05/03 06:40:50;;;;;;;4.90;2.20;;;23.50;61.20;;;;;;5008080;28;21979;-72
2023/05/03 06:43:19;;;;;;;2.00;1.90;;;23.50;61.10;;;;;;5009018;28;20447;-72
2023/05/03 06:45:54;;;;;;;2.60;2.40;;;23.50;61.10;;;;;;5009381;28;20511;-72
2023/05/03 06:48:23;;;;;;;2.73;2.53;;;23.50;61.10;;;;;;5003342;28;20588;-70
2023/05/03 06:50:53;;;;;;;2.00;1.90;;;23.50;61.20;;;;;;5009735;28;20462;-71
2023/05/03 06:53:22;;;;;;;2.00;1.90;;;23.50;61.80;;;;;;5009728;28;20458;-71
2023/05/03 06:55:50;;;;;;;2.70;2.50;;;23.50;61.90;;;;;;5012073;28;20548;-71
2023/05/03 06:58:18;;;;;;;1.83;1.73;;;23.50;62.00;;;;;;5010722;28;20945;-71
2023/05/03 07:00:46;;;;;;;2.37;2.17;;;23.50;62.00;;;;;;5010599;28;20963;-72
2023/05/03 07:03:14;;;;;;;3.10;2.07;;;23.60;62.00;;;;;;5011013;28;20508;-73
2023/05/03 07:05:43;;;;;;;2.27;1.67;;;23.60;62.00;;;;;;5005591;28;20453;-73
2023/05/03 07:08:12;;;;;;;2.20;2.10;;;23.60;61.90;;;;;;5010000;28;20540;-73
2023/05/03 07:10:40;;;;;;;2.50;2.30;;;23.60;61.90;;;;;;5009295;28;20941;-73
2023/05/03 07:13:09;;;;;;;3.20;3.00;;;23.70;61.80;;;;;;5010970;28;20999;-72
2023/05/03 07:15:37;;;;;;;2.40;2.10;;;23.70;61.80;;;;;;5013231;28;20446;-73
2023/05/03 07:18:05;;;;;;;1.93;1.83;;;23.70;61.70;;;;;;5014485;28;20450;-73
2023/05/03 07:20:33;;;;;;;2.33;2.13;;;23.70;61.70;;;;;;5008980;28;20467;-72
2023/05/03 07:23:02;;;;;;;2.30;2.20;;;23.70;61.80;;;;;;5009371;28;21029;-71
2023/05/03 07:25:32;;;;;;;2.60;2.40;;;23.70;61.70;;;;;;5008915;28;20541;-71
2023/05/03 07:28:00;;;;;;;2.90;2.70;;;23.70;61.70;;;;;;5008895;28;20909;-71
2023/05/03 07:30:29;;;;;;;2.27;2.07;;;23.70;61.60;;;;;;5013186;28;20505;-71
2023/05/03 07:32:57;;;;;;;2.40;2.30;;;23.80;61.50;;;;;;5012704;28;20490;-72
2023/05/03 07:35:27;;;;;;;2.57;2.37;;;23.80;61.40;;;;;;5014152;28;20451;-71
2023/05/03 07:37:55;;;;;;;2.53;2.20;;;23.80;61.40;;;;;;5016193;28;20521;-72
2023/05/03 07:40:23;;;;;;;2.30;2.20;;;23.80;61.30;;;;;;5031365;28;20460;-73
2023/05/03 07:42:53;;;;;;;2.17;1.73;;;23.80;61.20;;;;;;5033175;28;20474;-73
2023/05/03 07:45:21;;;;;;;2.60;2.40;;;23.80;61.10;;;;;;5032713;28;20454;-72
2023/05/03 07:47:49;;;;;;;2.57;2.40;;;23.90;61.00;;;;;;5028258;28;20480;-73
2023/05/03 07:50:18;;;;;;;3.17;2.87;;;23.90;61.00;;;;;;5031298;28;20528;-72
2023/05/03 07:52:50;;;;;;;2.13;2.03;;;23.90;61.00;;;;;;5031792;28;20462;-73
2023/05/03 07:55:19;;;;;;;2.27;2.17;;;23.90;61.00;;;;;;5033052;28;20452;-73
2023/05/03 07:57:47;;;;;;;2.90;2.70;;;23.90;61.00;;;;;;5026529;28;20486;-73
2023/05/03 08:00:17;;;;;;;2.77;2.57;;;23.90;61.00;;;;;;5015299;28;20800;-71
2023/05/03 08:02:46;;;;;;;3.13;2.03;;;23.90;60.90;;;;;;5030570;28;20453;-71
2023/05/03 08:05:15;;;;;;;2.53;2.30;;;23.90;60.80;;;;;;5029313;28;20941;-73
2023/05/03 08:07:43;;;;;;;3.00;2.20;;;23.90;60.80;;;;;;5031695;28;20482;-73
2023/05/03 08:10:11;;;;;;;2.20;2.10;;;23.90;60.90;;;;;;5014251;28;20453;-72
2023/05/03 08:12:40;;;;;;;2.07;1.97;;;23.90;60.90;;;;;;5029550;28;20458;-72
2023/05/03 08:15:08;;;;;;;4.17;2.37;;;23.90;60.90;;;;;;5033153;28;20892;-73
2023/05/03 08:17:45;;;;;;;3.47;2.97;;;24.00;60.90;;;;;;5031553;28;20466;-72
2023/05/03 08:20:14;;;;;;;2.33;2.13;;;24.00;60.90;;;;;;5029926;28;20531;-72
2023/05/03 08:22:45;;;;;;;2.40;2.23;;;24.00;60.80;;;;;;5032234;28;20451;-73
2023/05/03 08:25:15;;;;;;;2.50;2.40;;;24.00;60.80;;;;;;5029128;28;20465;-72
2023/05/03 08:27:43;;;;;;;2.10;2.00;;;24.00;60.70;;;;;;5031477;28;20949;-73
2023/05/03 08:30:12;;;;;;;2.77;2.57;;;24.00;60.70;;;;;;5026884;28;20521;-72
2023/05/03 08:32:40;;;;;;;5.33;2.23;;;24.00;60.70;;;;;;5033514;28;20480;-72
2023/05/03 08:35:12;;;;;;;3.10;2.77;;;24.00;60.70;;;;;;5031583;28;20961;-72
2023/05/03 08:37:42;;;;;;;2.60;2.40;;;24.00;60.70;;;;;;5031062;28;20490;-72
2023/05/03 08:40:13;;;;;;;2.53;2.40;;;24.00;60.60;;;;;;5030680;28;20467;-72
2023/05/03 08:42:42;;;;;;;2.67;2.37;;;24.00;60.70;;;;;;5032246;28;20465;-72
2023/05/03 08:45:13;;;;;;;2.70;2.50;;;24.00;60.50;;;;;;5028801;28;20461;-72
2023/05/03 08:47:43;;;;;;;2.60;2.23;;;24.00;60.50;;;;;;5031959;28;20446;-73
2023/05/03 08:50:14;;;;;;;2.30;2.20;;;24.10;60.50;;;;;;5031668;28;20893;-73
2023/05/03 08:52:44;;;;;;;2.80;2.17;;;24.10;60.50;;;;;;5030865;28;20456;-73
2023/05/03 08:55:12;;;;;;;3.60;3.00;;;24.10;60.50;;;;;;5032925;28;20957;-71
2023/05/03 08:57:41;;;;;;;3.27;3.00;;;24.10;60.50;;;;;;5028127;28;20462;-73
2023/05/03 09:00:11;;;;;;;2.70;2.50;;;24.10;60.50;;;;;;5032534;28;20540;-74
2023/05/03 09:02:40;;;;;;;2.87;2.63;;;24.10;60.50;;;;;;5032636;28;20462;-74
2023/05/03 09:05:37;;;;;;;5.63;2.77;;;24.10;60.40;;;;;;5026197;28;20969;-74
2023/05/03 09:08:08;;;;;;;2.83;2.63;;;24.10;60.50;;;;;;5011004;28;20460;-73
2023/05/03 09:10:39;;;;;;;2.67;2.47;;;24.10;60.40;;;;;;5031074;28;20457;-74
2023/05/03 09:13:08;;;;;;;2.80;2.60;;;24.10;60.40;;;;;;5028807;28;20464;-73
2023/05/03 09:15:37;;;;;;;3.27;2.60;;;24.10;60.40;;;;;;5029015;28;20450;-73
2023/05/03 09:18:14;;;;;;;2.93;2.73;;;24.20;60.30;;;;;;5029595;28;20550;-73
2023/05/03 09:20:50;;;;;;;2.60;2.40;;;24.20;60.20;;;;;;5023398;28;20450;-72
2023/05/03 09:23:28;;;;;;;2.80;2.60;;;24.20;60.20;;;;;;5026481;28;20443;-73
2023/05/03 09:25:57;;;;;;;2.73;2.60;;;24.20;60.20;;;;;;5025544;28;20454;-69
2023/05/03 09:28:26;;;;;;;2.93;2.57;;;24.20;60.00;;;;;;5023681;28;20550;-69
2023/05/03 09:31:06;;;;;;;2.37;2.27;;;24.30;59.90;;;;;;5025978;28;20444;-69
2023/05/03 09:33:34;;;;;;;3.10;2.90;;;24.30;59.80;;;;;;5030419;28;20447;-69
2023/05/03 09:36:05;;;;;;;2.47;2.27;;;24.30;59.70;;;;;;5031081;28;20455;-69
2023/05/03 09:38:36;;;;;;;2.30;2.20;;;24.30;59.70;;;;;;5026742;28;20524;-69
2023/05/03 09:41:05;;;;;;;2.73;2.53;;;24.30;59.70;;;;;;5031366;28;20471;-69
2023/05/03 09:43:34;;;;;;;3.07;2.87;;;24.30;59.70;;;;;;5029655;28;20448;-69
2023/05/03 09:46:10;;;;;;;3.10;2.90;;;24.30;59.60;;;;;;5031639;28;20447;-69
2023/05/03 09:48:39;;;;;;;3.50;2.63;;;24.30;59.60;;;;;;5015079;28;20460;-68
2023/05/03 09:51:10;;;;;;;2.30;2.20;;;24.30;59.60;;;;;;5033474;28;20486;-69
2023/05/03 09:53:40;;;;;;;2.50;2.30;;;24.30;59.60;;;;;;5015482;28;20503;-69
2023/05/03 09:56:12;;;;;;;2.40;2.30;;;24.30;59.60;;;;;;5033703;28;20452;-69
2023/05/03 09:58:40;;;;;;;2.83;2.60;;;24.30;59.60;;;;;;5023320;28;20545;-69
2023/05/03 10:01:09;;;;;;;2.80;2.60;;;24.30;59.60;;;;;;5029245;28;20516;-69
2023/05/03 10:03:42;;;;;;;3.43;2.87;;;24.40;59.60;;;;;;5030374;28;20496;-69
2023/05/03 10:06:23;;;;;;;3.60;3.30;;;24.40;59.70;;;;;;5028797;28;20543;-69
2023/05/03 10:08:57;;;;;;;3.20;2.90;;;24.40;59.70;;;;;;5024060;28;20450;-69
2023/05/03 10:11:27;;;;;;;2.90;2.70;;;24.40;59.70;;;;;;5025239;28;20522;-69
2023/05/03 10:13:56;;;;;;;3.20;3.00;;;24.40;59.70;;;;;;5029898;28;20511;-69
2023/05/03 10:16:29;;;;;;;2.50;2.30;;;24.30;59.70;;;;;;5014224;28;20456;-69
2023/05/03 10:19:04;;;;;;;2.90;2.77;;;24.40;59.70;;;;;;5027676;28;20505;-69
2023/05/03 10:21:47;;;;;;;3.03;2.80;;;24.30;59.70;;;;;;5029874;28;20451;-69
2023/05/03 10:24:16;;;;;;;3.10;2.83;;;24.30;59.70;;;;;;5031908;28;20476;-69
2023/05/03 10:26:46;;;;;;;3.67;2.60;;;24.30;59.70;;;;;;5029565;28;20506;-69
2023/05/03 10:29:47;;;;;;;3.40;3.10;;;24.30;59.70;;;;;;5028198;28;20483;-69
2023/05/03 10:32:31;;;;;;;3.17;2.97;;;24.30;59.70;;;;;;5019439;28;20513;-69
2023/05/03 10:35:02;;;;;;;2.90;2.70;;;24.30;59.70;;;;;;5043024;28;20456;-69
2023/05/03 10:37:34;;;;;;;2.70;2.50;;;24.30;59.70;;;;;;5030109;28;20551;-69
2023/05/03 10:40:08;;;;;;;2.90;2.70;;;24.30;59.80;;;;;;5033386;28;20543;-69
2023/05/03 10:42:38;;;;;;;2.67;2.57;;;24.30;59.80;;;;;;5029027;28;20496;-69
2023/05/03 10:45:10;;;;;;;2.40;2.30;;;24.30;59.80;;;;;;5028684;28;20471;-69
2023/05/03 10:47:39;;;;;;;3.00;2.70;;;24.40;59.80;;;;;;5029020;28;20448;-69
2023/05/03 10:50:27;;;;;;;2.90;2.70;;;24.40;59.80;;;;;;5033776;28;20471;-69
2023/05/03 10:52:58;;;;;;;3.10;2.80;;;24.40;59.70;;;;;;5033547;28;20474;-69
2023/05/03 10:55:26;;;;;;;3.77;3.30;;;24.40;59.70;;;;;;5024044;28;20498;-72
2023/05/03 10:57:57;;;;;;;3.00;2.70;;;24.40;59.70;;;;;;5026933;28;20480;-72
2023/05/03 11:00:31;;;;;;;3.50;3.10;;;24.40;59.80;;;;;;5029868;28;20461;-72
2023/05/03 11:03:27;;;;;;;2.97;2.73;;;24.50;59.90;;;;;;5032675;28;20452;-72
2023/05/03 11:05:56;;;;;;;3.63;2.50;;;24.50;60.00;;;;;;5031542;28;20449;-73
2023/05/03 11:08:26;;;;;;;3.77;2.90;;;24.50;59.90;;;;;;5027303;28;21013;-73
2023/05/03 11:10:59;;;;;;;3.20;3.00;;;24.50;59.90;;;;;;5030727;28;20477;-73
2023/05/03 11:13:27;;;;;;;3.00;2.80;;;24.60;59.90;;;;;;5024783;28;20462;-71
2023/05/03 11:15:56;;;;;;;2.97;2.77;;;24.60;59.80;;;;;;5018273;28;20787;-73
2023/05/03 11:18:26;;;;;;;3.37;2.80;;;24.60;59.80;;;;;;5025260;28;20475;-72
2023/05/03 11:20:55;;;;;;;3.50;3.20;;;24.60;59.80;;;;;;5011199;28;20505;-73
2023/05/03 11:23:27;;;;;;;3.87;3.50;;;24.60;59.80;;;;;;5032740;28;20453;-73
2023/05/03 11:25:56;;;;;;;3.30;3.00;;;24.70;59.70;;;;;;5010829;28;20868;-72
2023/05/03 11:28:25;;;;;;;3.30;3.00;;;24.70;59.70;;;;;;5036737;28;20449;-72
2023/05/03 11:30:53;;;;;;;3.00;2.70;;;24.80;59.60;;;;;;5027881;28;21002;-72
2023/05/03 11:33:22;;;;;;;3.20;2.90;;;24.80;59.50;;;;;;5037349;28;20548;-73
2023/05/03 11:35:50;;;;;;;3.50;3.20;;;24.90;59.40;;;;;;5028093;28;20524;-73
2023/05/03 11:38:18;;;;;;;3.40;3.20;;;25.00;59.40;;;;;;5035612;28;20499;-73
2023/05/03 11:40:48;;;;;;;4.40;3.10;;;25.00;59.10;;;;;;5034644;28;20455;-72
2023/05/03 11:43:16;;;;;;;3.20;2.90;;;25.10;59.00;;;;;;5033399;28;20512;-72
2023/05/03 11:45:46;;;;;;;3.30;3.03;;;25.20;58.70;;;;;;5034516;28;20463;-72
2023/05/03 11:48:16;;;;;;;3.30;3.00;;;25.30;58.80;;;;;;5032041;28;20470;-72
2023/05/03 11:50:46;;;;;;;4.00;3.53;;;25.30;58.50;;;;;;5022020;28;20499;-72
2023/05/03 11:53:15;;;;;;;3.80;3.50;;;25.30;58.70;;;;;;5022559;28;20514;-72
2023/05/03 11:55:46;;;;;;;2.83;2.63;;;25.40;58.60;;;;;;5030464;28;20538;-73
2023/05/03 11:58:18;;;;;;;3.50;3.30;;;25.50;58.40;;;;;;5034948;28;20622;-73
2023/05/03 12:00:48;;;;;;;2.97;2.77;;;25.70;58.10;;;;;;5035758;28;20538;-74
2023/05/03 12:03:18;;;;;;;2.77;2.57;;;25.80;57.90;;;;;;5017014;28;20457;-74
2023/05/03 12:05:48;;;;;;;3.67;3.40;;;25.80;57.40;;;;;;5020029;28;20499;-72
2023/05/03 12:08:18;;;;;;;3.10;2.90;;;25.80;57.60;;;;;;5018738;28;20449;-74
2023/05/03 12:10:50;;;;;;;2.80;2.60;;;25.80;57.50;;;;;;5026161;28;20480;-73
2023/05/03 12:13:29;;;;;;;3.70;3.40;;;25.80;57.60;;;;;;5033050;28;20478;-73
2023/05/03 12:16:02;;;;;;;3.63;3.10;;;25.80;57.50;;;;;;5026441;28;20451;-72
2023/05/03 12:18:46;;;;;;;3.07;2.87;;;25.70;57.90;;;;;;5025146;28;20464;-73
2023/05/03 12:21:15;;;;;;;3.07;2.87;;;25.80;57.90;;;;;;5021576;28;20888;-72
2023/05/03 12:23:48;;;;;;;3.20;3.00;;;25.90;57.40;;;;;;5025584;28;20542;-73
2023/05/03 12:26:18;;;;;;;3.73;3.43;;;26.00;57.50;;;;;;5029060;28;21019;-73
2023/05/03 12:28:49;;;;;;;3.20;3.00;;;26.10;57.00;;;;;;5026336;28;20449;-74
2023/05/03 12:31:17;;;;;;;4.40;3.10;;;26.10;56.70;;;;;;5030921;28;20475;-72
2023/05/03 12:33:50;;;;;;;2.77;2.67;;;26.00;56.70;;;;;;5014288;28;20467;-71
2023/05/03 12:36:22;;;;;;;3.50;3.23;;;26.00;57.40;;;;;;5019330;28;20527;-71
2023/05/03 12:38:53;;;;;;;5.10;3.33;;;26.00;57.30;;;;;;5030140;28;20492;-73
2023/05/03 12:41:26;;;;;;;3.90;3.50;;;26.10;57.30;;;;;;5019045;28;20460;-74
2023/05/03 12:44:16;;;;;;;3.57;3.27;;;26.20;57.10;;;;;;5022746;28;20785;-72
2023/05/03 12:46:44;;;;;;;2.90;2.70;;;26.30;56.80;;;;;;5026807;28;20862;-72
2023/05/03 12:49:13;;;;;;;3.07;2.87;;;26.40;56.60;;;;;;5021943;28;20455;-72
2023/05/03 12:51:42;;;;;;;4.60;2.90;;;26.60;56.50;;;;;;5030312;28;20567;-72
2023/05/03 12:54:17;;;;;;;3.03;2.60;;;26.60;56.30;;;;;;5027715;28;20458;-73
2023/05/03 12:56:46;;;;;;;3.13;2.83;;;26.70;56.10;;;;;;5023389;28;20452;-73
2023/05/03 12:59:16;;;;;;;2.97;2.77;;;26.70;56.10;;;;;;5031269;28;20956;-72
2023/05/03 13:02:05;;;;;;;2.73;2.63;;;26.70;56.00;;;;;;5028188;28;20463;-71
2023/05/03 13:04:55;;;;;;;3.67;3.37;;;26.70;56.00;;;;;;5026651;28;21352;-72